Time;durP1;ratioP1;P1;durP2;ratioP2;P2;SDS_P1;SDS_P2;PMS_P1;PMS_P2;Temp;Humidity;BMP_temperature;BMP_pressure;BME280_temperature;BME280_humidity;BME280_pressure;Samples;Min_cycle;Max_cycle;Signal;HPM_P1;HPM_P2
2023/07/03 00:00:57;;;;;;;;;;;28.20;44.60;;;;;;21259407;27;19930;-62
2023/07/03 00:11:01;;;;;;;;;;;28.00;44.60;;;;;;21259704;27;20419;-60
2023/07/03 00:21:02;;;;;;;;;;;27.80;45.00;;;;;;21258918;27;20010;-60
2023/07/03 00:31:03;;;;;;;;;;;27.70;45.30;;;;;;21256421;27;19966;-59
2023/07/03 00:41:03;;;;;;;;;;;27.60;45.40;;;;;;21257022;27;19924;-59
2023/07/03 00:51:04;;;;;;;;;;;27.50;45.60;;;;;;21256089;27;19923;-59
2023/07/03 01:01:24;;;;;;;;;;;27.40;45.70;;;;;;21252599;27;19931;-58
2023/07/03 01:11:25;;;;;;;;;;;27.30;46.10;;;;;;21254624;27;19930;-59
2023/07/03 01:21:40;;;;;;;;;;;27.10;46.60;;;;;;21253769;27;19923;-58
2023/07/03 01:31:41;;;;;;;;;;;26.90;47.00;;;;;;21251370;27;19930;-57
2023/07/03 01:41:42;;;;;;;;;;;26.90;47.00;;;;;;21252166;27;19923;-59
2023/07/03 01:51:55;;;;;;;;;;;26.80;47.30;;;;;;21249991;27;20010;-58
2023/07/03 02:02:06;;;;;;;;;;;26.60;47.80;;;;;;21249411;27;19923;-58
2023/07/03 02:12:08;;;;;;;;;;;26.60;47.80;;;;;;21249541;27;20007;-58
2023/07/03 02:22:08;;;;;;;;;;;26.60;47.80;;;;;;21247898;27;19923;-57
2023/07/03 02:32:11;;;;;;;;;;;26.40;48.10;;;;;;21247661;27;19989;-58
2023/07/03 02:42:12;;;;;;;;;;;26.40;48.10;;;;;;21248827;28;19924;-58
2023/07/03 02:52:12;;;;;;;;;;;26.30;48.30;;;;;;21248393;28;20410;-57
2023/07/03 03:02:13;;;;;;;;;;;26.20;48.70;;;;;;21248476;28;20360;-60
2023/07/03 03:12:14;;;;;;;;;;;26.10;49.00;;;;;;21247676;28;20402;-58
2023/07/03 03:22:14;;;;;;;;;;;25.90;49.50;;;;;;21257881;27;19923;-57
2023/07/03 03:32:15;;;;;;;;;;;25.90;49.60;;;;;;21261352;27;19980;-59
2023/07/03 03:42:15;;;;;;;;;;;25.70;50.00;;;;;;21261656;27;19929;-58
2023/07/03 03:52:16;;;;;;;;;;;25.60;50.30;;;;;;21259841;27;19962;-58
2023/07/03 04:02:17;;;;;;;;;;;25.70;50.20;;;;;;21260401;27;20391;-58
2023/07/03 04:12:17;;;;;;;;;;;25.50;50.80;;;;;;21259967;27;19930;-58
2023/07/03 04:22:18;;;;;;;;;;;25.50;50.80;;;;;;21258564;27;19955;-58
2023/07/03 04:32:18;;;;;;;;;;;25.40;51.20;;;;;;21257838;27;19923;-58
2023/07/03 04:42:20;;;;;;;;;;;25.20;51.40;;;;;;21257238;27;19970;-57
2023/07/03 04:52:27;;;;;;;;;;;25.20;51.60;;;;;;21254727;27;19924;-58
2023/07/03 05:02:28;;;;;;;;;;;25.20;51.50;;;;;;21255549;27;19931;-59
2023/07/03 05:12:28;;;;;;;;;;;25.20;51.70;;;;;;21255193;27;19924;-58
2023/07/03 05:22:29;;;;;;;;;;;25.20;51.70;;;;;;21245705;27;19952;-58
2023/07/03 05:32:30;;;;;;;;;;;25.30;51.70;;;;;;21253375;27;20415;-58
2023/07/03 05:42:30;;;;;;;;;;;25.20;51.90;;;;;;21252106;27;20006;-57
2023/07/03 05:52:33;;;;;;;;;;;25.30;51.70;;;;;;21251588;27;19923;-57
2023/07/03 06:02:35;;;;;;;;;;;25.40;51.60;;;;;;21251508;27;20326;-59
2023/07/03 06:12:36;;;;;;;;;;;25.50;51.30;;;;;;21250314;27;20406;-58
2023/07/03 06:22:38;;;;;;;;;;;25.60;51.20;;;;;;21249319;27;20407;-58
2023/07/03 06:32:38;;;;;;;;;;;25.70;50.90;;;;;;21249634;27;19946;-58
2023/07/03 06:42:39;;;;;;;;;;;25.70;50.60;;;;;;21248011;28;19932;-59
2023/07/03 06:52:40;;;;;;;;;;;25.80;50.70;;;;;;21254385;27;20019;-59
2023/07/03 07:02:41;;;;;;;;;;;26.00;50.10;;;;;;21263343;27;19927;-58
2023/07/03 07:12:41;;;;;;;;;;;26.50;49.10;;;;;;21263102;27;20064;-58
2023/07/03 07:22:42;;;;;;;;;;;27.20;47.50;;;;;;21262668;27;20010;-60
2023/07/03 07:32:44;;;;;;;;;;;27.60;46.60;;;;;;21263085;27;20372;-58
2023/07/03 07:42:44;;;;;;;;;;;28.10;45.60;;;;;;21261223;27;20395;-58
2023/07/03 07:52:45;;;;;;;;;;;28.30;45.30;;;;;;21261607;27;19946;-57
2023/07/03 08:02:45;;;;;;;;;;;28.70;44.70;;;;;;21258798;27;19923;-59
2023/07/03 08:12:46;;;;;;;;;;;29.10;44.00;;;;;;21259582;27;20368;-60
2023/07/03 08:22:47;;;;;;;;;;;29.30;43.40;;;;;;21257400;27;19930;-60
2023/07/03 08:32:47;;;;;;;;;;;29.60;43.00;;;;;;21256863;27;20034;-58
2023/07/03 08:42:55;;;;;;;;;;;29.90;42.90;;;;;;21257120;27;19967;-58
2023/07/03 08:53:03;;;;;;;;;;;30.00;42.40;;;;;;21256370;27;19929;-61
2023/07/03 09:03:10;;;;;;;;;;;30.30;42.30;;;;;;21256331;27;19976;-61
2023/07/03 09:13:11;;;;;;;;;;;30.50;41.40;;;;;;21252921;27;19924;-59
2023/07/03 09:23:17;;;;;;;;;;;30.80;40.50;;;;;;21252789;27;19984;-60
2023/07/03 09:33:18;;;;;;;;;;;31.00;40.60;;;;;;21253667;27;19931;-60
2023/07/03 09:43:21;;;;;;;;;;;31.10;40.00;;;;;;21252028;27;19924;-60
2023/07/03 09:53:23;;;;;;;;;;;31.30;39.50;;;;;;21251872;27;19923;-60
2023/07/03 10:03:25;;;;;;;;;;;30.90;40.20;;;;;;21249883;27;19923;-58
2023/07/03 10:13:35;;;;;;;;;;;31.20;39.90;;;;;;21248589;27;20032;-58
2023/07/03 10:23:38;;;;;;;;;;;31.80;39.00;;;;;;21248775;27;19927;-58
2023/07/03 10:33:41;;;;;;;;;;;32.20;37.10;;;;;;21248047;27;19984;-59
2023/07/03 10:43:45;;;;;;;;;;;32.00;37.50;;;;;;21248625;28;19923;-59
2023/07/03 10:53:55;;;;;;;;;;;32.00;38.10;;;;;;21248441;28;19930;-59
2023/07/03 11:03:59;;;;;;;;;;;32.20;37.20;;;;;;21247201;28;19931;-60
2023/07/03 11:14:26;;;;;;;;;;;32.60;36.70;;;;;;21247495;28;19928;-60
2023/07/03 11:24:56;;;;;;;;;;;33.00;35.50;;;;;;21206241;28;19924;-59
2023/07/03 11:34:57;;;;;;;;;;;33.20;34.70;;;;;;21223524;28;20023;-59
2023/07/03 11:44:58;;;;;;;;;;;33.60;34.10;;;;;;21258436;27;19963;-58
2023/07/03 11:55:01;;;;;;;;;;;33.90;32.30;;;;;;21260536;27;19924;-61
2023/07/03 12:05:03;;;;;;;;;;;34.10;31.70;;;;;;21259805;27;19924;-58
2023/07/03 12:15:11;;;;;;;;;;;34.30;31.20;;;;;;21258248;27;20368;-61
2023/07/03 12:25:21;;;;;;;;;;;34.60;31.70;;;;;;21256475;27;20341;-60
2023/07/03 12:35:23;;;;;;;;;;;34.80;29.00;;;;;;21256857;27;20426;-58
2023/07/03 12:45:28;;;;;;;;;;;34.90;28.80;;;;;;21255580;27;20325;-59
2023/07/03 12:55:33;;;;;;;;;;;34.80;26.80;;;;;;21255282;27;20403;-59
2023/07/03 13:05:35;;;;;;;;;;;35.00;26.90;;;;;;21254861;27;20014;-59
2023/07/03 13:15:38;;;;;;;;;;;35.00;25.50;;;;;;21253633;27;19931;-59
2023/07/03 13:25:48;;;;;;;;;;;35.30;26.10;;;;;;21251867;27;20277;-58
2023/07/03 13:35:50;;;;;;;;;;;35.50;26.10;;;;;;21252653;27;20325;-59
2023/07/03 13:45:52;;;;;;;;;;;35.30;26.40;;;;;;21251537;27;19928;-59
2023/07/03 13:55:53;;;;;;;;;;;35.60;26.60;;;;;;21250805;27;19924;-57
2023/07/03 14:05:54;;;;;;;;;;;35.40;23.80;;;;;;21247947;27;19970;-60
2023/07/03 14:15:55;;;;;;;;;;;35.60;24.80;;;;;;21249782;27;20345;-58
2023/07/03 14:25:55;;;;;;;;;;;35.30;23.50;;;;;;21247776;27;20019;-60
2023/07/03 14:35:56;;;;;;;;;;;35.40;23.30;;;;;;21248986;27;20364;-60
2023/07/03 14:45:57;;;;;;;;;;;35.60;23.40;;;;;;21249177;28;19973;-59
2023/07/03 14:55:58;;;;;;;;;;;35.50;22.60;;;;;;21248533;28;19923;-58
2023/07/03 15:06:00;;;;;;;;;;;35.60;23.40;;;;;;21248527;28;19930;-58
2023/07/03 15:16:01;;;;;;;;;;;35.60;21.10;;;;;;21255570;27;19923;-58
2023/07/03 15:26:05;;;;;;;;;;;35.50;19.70;;;;;;21261917;27;19978;-60
2023/07/03 15:36:06;;;;;;;;;;;35.50;19.40;;;;;;21261254;27;19977;-58
2023/07/03 15:46:09;;;;;;;;;;;35.30;19.70;;;;;;21260598;27;19923;-59
2023/07/03 15:56:11;;;;;;;;;;;35.50;19.30;;;;;;21260803;27;20364;-58
2023/07/03 16:06:16;;;;;;;;;;;35.50;19.30;;;;;;21258712;27;19923;-58
2023/07/03 16:16:21;;;;;;;;;;;35.40;17.20;;;;;;21258925;27;19923;-59
2023/07/03 16:26:25;;;;;;;;;;;35.40;19.20;;;;;;21256577;27;19967;-57
2023/07/03 16:36:27;;;;;;;;;;;35.40;18.70;;;;;;21256752;27;20331;-57
2023/07/03 16:46:28;;;;;;;;;;;35.40;17.80;;;;;;21254907;27;19991;-58
2023/07/03 16:56:29;;;;;;;;;;;35.20;18.50;;;;;;21254283;27;20392;-56
2023/07/03 17:06:31;;;;;;;;;;;35.10;18.60;;;;;;21255221;27;20372;-58
2023/07/03 17:16:32;;;;;;;;;;;35.00;18.90;;;;;;21252939;27;19939;-59
2023/07/03 17:26:33;;;;;;;;;;;34.80;20.80;;;;;;21252113;27;19923;-57
2023/07/03 17:36:33;;;;;;;;;;;34.70;22.10;;;;;;21250314;27;20329;-57
2023/07/03 17:46:34;;;;;;;;;;;34.70;22.00;;;;;;21251617;27;19994;-58
2023/07/03 17:56:36;;;;;;;;;;;34.60;21.70;;;;;;21250192;27;20387;-58
2023/07/03 18:06:37;;;;;;;;;;;34.40;22.10;;;;;;21250351;27;19976;-57
2023/07/03 18:16:38;;;;;;;;;;;34.30;22.70;;;;;;21248987;27;19924;-57
2023/07/03 18:26:38;;;;;;;;;;;34.20;22.60;;;;;;21247732;27;20011;-57
2023/07/03 18:36:39;;;;;;;;;;;34.10;22.60;;;;;;21246407;27;19935;-59
2023/07/03 18:46:40;;;;;;;;;;;33.90;23.10;;;;;;21250671;27;19934;-57
2023/07/03 18:56:41;;;;;;;;;;;33.70;23.30;;;;;;21265567;27;19974;-57
2023/07/03 19:06:41;;;;;;;;;;;33.60;22.70;;;;;;21263519;27;19931;-58
2023/07/03 19:16:42;;;;;;;;;;;33.50;22.40;;;;;;21263561;27;19976;-59
2023/07/03 19:26:43;;;;;;;;;;;33.30;22.10;;;;;;21261684;27;19924;-58
2023/07/03 19:36:43;;;;;;;;;;;33.10;22.40;;;;;;21261827;27;19923;-58
2023/07/03 19:46:44;;;;;;;;;;;33.00;23.20;;;;;;21260662;27;19969;-57
2023/07/03 19:56:45;;;;;;;;;;;32.70;23.90;;;;;;21260062;27;19923;-58
2023/07/03 20:06:45;;;;;;;;;;;32.50;24.70;;;;;;21257289;27;20014;-59
2023/07/03 20:16:46;;;;;;;;;;;32.30;25.00;;;;;;21258947;27;19977;-57
2023/07/03 20:26:47;;;;;;;;;;;32.10;25.30;;;;;;21256932;27;19923;-58
2023/07/03 20:36:49;;;;;;;;;;;32.00;25.70;;;;;;21257942;27;20392;-58
2023/07/03 20:46:50;;;;;;;;;;;31.60;26.60;;;;;;21255258;27;19963;-59
2023/07/03 20:56:50;;;;;;;;;;;31.40;29.20;;;;;;21254330;27;20352;-58
2023/07/03 21:06:53;;;;;;;;;;;31.10;29.90;;;;;;21255435;27;19963;-58
2023/07/03 21:16:54;;;;;;;;;;;30.90;30.40;;;;;;21254518;27;20014;-59
2023/07/03 21:26:55;;;;;;;;;;;30.80;30.50;;;;;;21254237;27;19924;-59
2023/07/03 21:36:55;;;;;;;;;;;30.60;30.80;;;;;;21252566;27;19923;-58
2023/07/03 21:46:56;;;;;;;;;;;30.50;31.10;;;;;;21252297;27;19976;-57
2023/07/03 21:56:56;;;;;;;;;;;30.30;31.00;;;;;;21250263;27;19970;-58
2023/07/03 22:06:58;;;;;;;;;;;30.00;31.30;;;;;;21250678;27;19927;-58
2023/07/03 22:16:59;;;;;;;;;;;29.90;31.30;;;;;;21250109;27;19971;-57
2023/07/03 22:26:59;;;;;;;;;;;29.80;31.80;;;;;;21247785;27;19931;-56
2023/07/03 22:37:00;;;;;;;;;;;29.60;31.90;;;;;;21249129;27;19975;-57
2023/07/03 22:47:00;;;;;;;;;;;29.50;32.10;;;;;;21249157;28;19981;-60
2023/07/03 22:57:01;;;;;;;;;;;29.30;31.60;;;;;;21248528;28;19981;-60
2023/07/03 23:07:02;;;;;;;;;;;29.20;31.60;;;;;;21248317;28;19946;-59
2023/07/03 23:17:03;;;;;;;;;;;29.20;31.70;;;;;;21247848;28;19923;-59
2023/07/03 23:27:04;;;;;;;;;;;29.10;32.00;;;;;;21247535;28;19923;-59
2023/07/03 23:37:04;;;;;;;;;;;28.90;32.30;;;;;;21254558;27;19930;-58
2023/07/03 23:47:06;;;;;;;;;;;28.90;32.20;;;;;;21262340;27;19923;-59
2023/07/03 23:57:06;;;;;;;;;;;28.90;32.40;;;;;;21261239;27;19923;-57
